Time;durP1;ratioP1;P1;durP2;ratioP2;P2;SDS_P1;SDS_P2;PMS_P1;PMS_P2;Temp;Humidity;BMP_temperature;BMP_pressure;BME280_temperature;BME280_humidity;BME280_pressure;Samples;Min_cycle;Max_cycle;Signal;HPM_P1;HPM_P2
2022/04/03 00:00:56;;;;;;;3.83;1.80;;;;;;;12.82;62.04;98658.16;5054026;28;20145;-49
2022/04/03 00:03:21;;;;;;;2.25;1.70;;;;;;;12.85;61.11;98660.34;5053755;28;20473;-50
2022/04/03 00:05:47;;;;;;;2.58;1.73;;;;;;;12.69;61.62;98666.50;5053411;28;20033;-49
2022/04/03 00:08:12;;;;;;;4.43;1.85;;;;;;;12.82;60.98;98657.38;5053558;28;20033;-50
2022/04/03 00:10:39;;;;;;;3.17;1.70;;;;;;;12.84;60.21;98655.25;5053531;28;20029;-49
2022/04/03 00:13:06;;;;;;;4.65;1.75;;;;;;;12.81;60.11;98661.91;5053280;28;20025;-48
2022/04/03 00:15:32;;;;;;;2.75;1.77;;;;;;;12.65;60.95;98650.16;5052487;28;20043;-52
2022/04/03 00:17:57;;;;;;;3.22;1.83;;;;;;;12.73;61.63;98661.50;5053394;28;20021;-48
2022/04/03 00:20:23;;;;;;;2.20;1.70;;;;;;;12.41;61.18;98670.06;5053235;28;20032;-49
2022/04/03 00:22:49;;;;;;;2.67;1.92;;;;;;;12.39;61.70;98662.28;5053290;28;20115;-50
2022/04/03 00:25:18;;;;;;;3.05;2.00;;;;;;;12.46;61.02;98657.59;5053241;28;20028;-48
2022/04/03 00:27:47;;;;;;;3.00;2.00;;;;;;;12.59;60.54;98651.16;5052689;28;20112;-48
2022/04/03 00:30:13;;;;;;;5.40;1.67;;;;;;;12.88;60.47;98659.06;5052995;28;20386;-48
2022/04/03 00:32:40;;;;;;;3.80;2.10;;;;;;;12.68;60.48;98665.72;5053066;28;20036;-48
2022/04/03 00:35:06;;;;;;;3.78;1.90;;;;;;;12.43;61.30;98670.63;5052894;28;20218;-48
2022/04/03 00:37:32;;;;;;;2.72;2.00;;;;;;;12.48;61.64;98666.16;5052913;28;20044;-48
2022/04/03 00:39:57;;;;;;;3.63;1.80;;;;;;;12.65;60.14;98657.38;5051773;28;20029;-48
2022/04/03 00:42:23;;;;;;;2.70;2.00;;;;;;;12.73;60.32;98651.63;5053003;28;20036;-47
2022/04/03 00:44:49;;;;;;;3.28;2.17;;;;;;;12.78;59.90;98632.22;5052631;28;20037;-47
2022/04/03 00:47:17;;;;;;;3.15;2.03;;;;;;;12.65;59.19;98610.13;5052626;28;20083;-48
2022/04/03 00:49:42;;;;;;;3.13;2.00;;;;;;;12.51;58.79;98611.53;5052728;28;20114;-49
2022/04/03 00:52:10;;;;;;;3.25;2.10;;;;;;;12.52;58.96;98621.13;5052738;28;20051;-47
2022/04/03 00:54:36;;;;;;;2.67;2.03;;;;;;;12.49;59.96;98613.63;5052568;28;20033;-47
2022/04/03 00:57:07;;;;;;;2.80;2.05;;;;;;;12.80;58.95;98614.88;5052535;28;20369;-49
2022/04/03 00:59:37;;;;;;;3.45;2.15;;;;;;;12.91;57.92;98615.84;5052198;28;20035;-47
2022/04/03 01:02:03;;;;;;;13.95;8.85;;;;;;;12.95;58.20;98611.63;5051923;28;20033;-47
2022/04/03 01:04:28;;;;;;;5.70;3.40;;;;;;;13.08;57.93;98615.81;5051138;28;20455;-49
2022/04/03 01:06:54;;;;;;;5.45;3.95;;;;;;;13.23;58.05;98609.84;5052601;28;20053;-47
2022/04/03 01:09:20;;;;;;;6.25;2.15;;;;;;;13.22;57.62;98595.69;5051934;28;20040;-47
2022/04/03 01:11:46;;;;;;;4.28;2.10;;;;;;;12.77;57.88;98543.28;5052038;28;20778;-48
2022/04/03 01:14:11;;;;;;;4.57;2.20;;;;;;;13.29;57.29;98580.28;5052281;28;20108;-47
2022/04/03 01:16:38;;;;;;;2.90;2.00;;;;;;;12.95;57.80;98573.44;5052626;28;20108;-47
2022/04/03 01:19:04;;;;;;;2.92;2.10;;;;;;;12.85;59.24;98572.25;5052010;28;20032;-48
2022/04/03 01:21:29;;;;;;;3.80;2.25;;;;;;;12.50;59.44;98556.53;5052278;28;20028;-51
2022/04/03 01:23:55;;;;;;;2.65;2.10;;;;;;;12.61;59.60;98560.16;5051909;28;20052;-49
2022/04/03 01:26:23;;;;;;;3.15;2.10;;;;;;;12.68;59.98;98568.81;5051231;28;20035;-48
2022/04/03 01:28:51;;;;;;;2.50;2.10;;;;;;;12.79;59.79;98537.72;5051975;28;20035;-50
2022/04/03 01:31:17;;;;;;;3.65;2.08;;;;;;;12.66;57.95;98552.22;5051530;28;20476;-48
2022/04/03 01:33:42;;;;;;;3.58;2.10;;;;;;;12.73;57.67;98566.19;5051306;28;20126;-51
2022/04/03 01:36:07;;;;;;;2.97;2.15;;;;;;;12.70;58.07;98562.16;5051672;28;20057;-51
2022/04/03 01:38:33;;;;;;;3.22;2.22;;;;;;;12.87;57.62;98561.31;5051851;28;20039;-50
2022/04/03 01:40:58;;;;;;;2.65;2.30;;;;;;;12.78;58.25;98552.94;5051357;28;20412;-48
2022/04/03 01:43:24;;;;;;;4.25;2.55;;;;;;;12.72;58.44;98553.91;5051719;28;20033;-48
2022/04/03 01:45:49;;;;;;;5.43;2.38;;;;;;;12.80;58.86;98552.69;5051726;28;20027;-50
2022/04/03 01:48:15;;;;;;;3.10;2.45;;;;;;;12.86;58.32;98557.03;5051412;28;20033;-49
2022/04/03 01:50:40;;;;;;;4.28;2.35;;;;;;;12.83;59.19;98557.50;5051740;28;20091;-49
2022/04/03 01:53:05;;;;;;;3.65;2.15;;;;;;;12.71;58.76;98557.63;5050939;28;20051;-47
2022/04/03 01:55:31;;;;;;;3.45;2.20;;;;;;;12.78;57.98;98547.59;5051257;28;20033;-47
2022/04/03 01:57:57;;;;;;;4.68;2.63;;;;;;;12.64;57.61;98546.31;5051562;28;20029;-47
2022/04/03 02:00:22;;;;;;;2.85;2.35;;;;;;;12.65;57.94;98542.59;5051326;28;20035;-51
2022/04/03 02:02:50;;;;;;;3.83;2.55;;;;;;;12.90;57.80;98558.16;5051253;28;20060;-48
2022/04/03 02:05:16;;;;;;;3.33;2.33;;;;;;;12.86;58.04;98549.03;5051363;28;20448;-48
2022/04/03 02:07:41;;;;;;;3.70;2.20;;;;;;;12.94;57.39;98553.13;5051228;28;20052;-49
2022/04/03 02:10:09;;;;;;;6.22;2.80;;;;;;;12.93;57.17;98541.66;5051016;28;20116;-49
2022/04/03 02:12:37;;;;;;;4.85;2.65;;;;;;;13.06;56.50;98553.81;5051107;28;20104;-48
2022/04/03 02:15:05;;;;;;;6.37;2.80;;;;;;;12.99;57.11;98548.66;5051231;28;20033;-48
2022/04/03 02:17:31;;;;;;;4.88;3.00;;;;;;;12.56;58.53;98549.41;5051321;28;20755;-48
2022/04/03 02:19:56;;;;;;;6.30;3.00;;;;;;;12.49;58.19;98550.41;5051480;28;20108;-47
2022/04/03 02:22:22;;;;;;;6.00;2.95;;;;;;;12.45;57.56;98549.28;5051105;28;20104;-48
2022/04/03 02:24:48;;;;;;;4.00;2.40;;;;;;;12.27;58.39;98554.84;5050723;28;20072;-47
2022/04/03 02:27:13;;;;;;;4.80;2.70;;;;;;;12.32;57.93;98554.94;5051208;28;20024;-50
2022/04/03 02:29:39;;;;;;;3.53;2.45;;;;;;;12.27;58.58;98562.88;5051238;28;20103;-48
2022/04/03 02:32:04;;;;;;;5.55;2.47;;;;;;;12.34;58.32;98566.19;5051183;28;20111;-47
2022/04/03 02:34:30;;;;;;;3.38;2.70;;;;;;;12.57;57.86;98564.38;5050657;28;20043;-49
2022/04/03 02:36:55;;;;;;;4.80;2.50;;;;;;;12.63;57.88;98555.41;5051078;28;20037;-50
2022/04/03 02:39:21;;;;;;;5.45;2.80;;;;;;;12.77;57.95;98561.97;5054196;28;20384;-47
2022/04/03 02:41:47;;;;;;;3.92;2.22;;;;;;;12.53;57.99;98572.06;5055027;28;20032;-48
2022/04/03 02:44:14;;;;;;;3.88;2.60;;;;;;;11.39;60.94;98567.72;5055392;28;20021;-47
2022/04/03 02:46:40;;;;;;;4.88;2.83;;;;;;;11.19;63.03;98576.91;5055052;28;20035;-49
2022/04/03 02:49:08;;;;;;;5.72;2.97;;;;;;;11.21;63.06;98582.81;5055443;28;20029;-49
2022/04/03 02:51:34;;;;;;;5.32;2.83;;;;;;;10.91;63.68;98578.47;5055047;28;20033;-47
2022/04/03 02:54:00;;;;;;;4.45;3.20;;;;;;;10.64;65.23;98572.00;5054512;28;20029;-49
2022/04/03 02:56:25;;;;;;;7.43;3.30;;;;;;;10.81;64.94;98575.59;5053388;28;20050;-47
2022/04/03 02:58:53;;;;;;;5.18;3.10;;;;;;;10.74;65.80;98582.91;5054458;28;20028;-47
2022/04/03 03:01:18;;;;;;;5.03;3.30;;;;;;;10.89;64.22;98577.06;5054396;28;20033;-47
2022/04/03 03:03:44;;;;;;;3.95;2.95;;;;;;;10.94;64.44;98583.31;5054202;28;20029;-51
2022/04/03 03:06:10;;;;;;;4.10;3.13;;;;;;;10.93;64.67;98576.41;5054076;28;20053;-50
2022/04/03 03:08:35;;;;;;;4.85;3.40;;;;;;;11.01;63.66;98587.72;5054517;28;20032;-50
2022/04/03 03:11:01;;;;;;;7.22;3.30;;;;;;;10.90;65.09;98587.50;5054060;28;20049;-51
2022/04/03 03:13:27;;;;;;;5.00;3.40;;;;;;;11.31;64.09;98584.88;5054329;28;20116;-46
2022/04/03 03:15:53;;;;;;;4.57;3.15;;;;;;;11.54;62.83;98591.97;5054649;28;20388;-47
2022/04/03 03:18:19;;;;;;;4.55;3.40;;;;;;;11.59;62.14;98588.59;5054032;28;20021;-48
2022/04/03 03:20:44;;;;;;;5.65;3.30;;;;;;;11.59;62.57;98589.38;5054599;28;20481;-47
2022/04/03 03:23:10;;;;;;;6.93;3.75;;;;;;;11.63;62.52;98590.56;5054582;28;20112;-47
2022/04/03 03:25:35;;;;;;;5.63;3.35;;;;;;;11.83;61.02;98595.44;5053987;28;20025;-48
2022/04/03 03:28:01;;;;;;;6.00;3.42;;;;;;;11.79;60.98;98588.16;5053860;28;20432;-47
2022/04/03 03:30:27;;;;;;;4.05;3.17;;;;;;;11.71;61.56;98576.03;5054408;28;20114;-48
2022/04/03 03:32:53;;;;;;;6.28;3.20;;;;;;;11.60;62.02;98585.69;5054073;28;20411;-49
2022/04/03 03:35:18;;;;;;;4.90;3.30;;;;;;;11.76;61.33;98585.97;5053808;28;20025;-48
2022/04/03 03:37:44;;;;;;;7.70;3.63;;;;;;;11.83;61.49;98584.78;5053743;28;20029;-49
2022/04/03 03:40:11;;;;;;;4.95;3.30;;;;;;;11.68;61.30;98603.97;5054084;28;20031;-51
2022/04/03 03:42:39;;;;;;;6.60;3.55;;;;;;;11.53;61.82;98615.13;5053815;28;20025;-49
2022/04/03 03:45:05;;;;;;;5.18;3.35;;;;;;;11.30;62.79;98621.34;5053473;28;20032;-48
2022/04/03 03:47:31;;;;;;;4.82;3.33;;;;;;;11.28;62.55;98626.09;5054040;28;20024;-48
2022/04/03 03:49:57;;;;;;;4.88;3.20;;;;;;;11.42;61.76;98625.81;5052366;28;20036;-50
2022/04/03 03:52:22;;;;;;;6.13;3.00;;;;;;;11.24;62.88;98630.28;5054116;28;20033;-47
2022/04/03 03:54:48;;;;;;;4.50;3.30;;;;;;;11.17;62.46;98637.56;5053739;28;20027;-47
2022/04/03 03:57:13;;;;;;;4.97;3.22;;;;;;;10.75;64.78;98637.72;5054110;28;20477;-47
2022/04/03 03:59:39;;;;;;;5.50;3.50;;;;;;;10.99;64.06;98643.84;5053325;28;20029;-47
2022/04/03 04:02:05;;;;;;;6.32;3.42;;;;;;;11.06;63.79;98641.88;5053732;28;20033;-47
2022/04/03 04:04:30;;;;;;;4.43;3.25;;;;;;;11.27;62.63;98639.63;5053522;28;20403;-47
2022/04/03 04:06:56;;;;;;;6.45;3.40;;;;;;;11.16;63.27;98638.63;5053415;28;20056;-50
2022/04/03 04:09:22;;;;;;;5.72;3.60;;;;;;;11.27;62.32;98640.47;5053613;28;20108;-50
2022/04/03 04:11:48;;;;;;;5.53;3.17;;;;;;;11.30;63.07;98631.19;5053193;28;20225;-50
2022/04/03 04:14:14;;;;;;;5.07;3.35;;;;;;;11.54;61.74;98640.75;5053411;28;20457;-48
2022/04/03 04:16:40;;;;;;;5.95;3.40;;;;;;;11.55;60.57;98638.88;5053555;28;20032;-50
2022/04/03 04:19:06;;;;;;;5.50;3.38;;;;;;;11.52;60.63;98652.69;5053098;28;20425;-49
2022/04/03 04:21:32;;;;;;;5.28;3.08;;;;;;;11.50;61.49;98646.78;5053349;28;20052;-54
2022/04/03 04:23:58;;;;;;;6.40;3.70;;;;;;;11.55;60.91;98633.56;5053481;28;20453;-48
2022/04/03 04:26:24;;;;;;;8.10;3.40;;;;;;;11.69;60.90;98642.91;5053362;28;20477;-50
2022/04/03 04:28:50;;;;;;;5.75;3.25;;;;;;;11.95;59.99;98654.06;5053109;28;20197;-51
2022/04/03 04:31:16;;;;;;;8.82;3.70;;;;;;;11.88;58.96;98651.53;5053262;28;20025;-47
2022/04/03 04:33:41;;;;;;;6.78;3.38;;;;;;;11.17;61.79;98647.44;5052810;28;20051;-50
2022/04/03 04:36:07;;;;;;;7.22;3.28;;;;;;;11.24;61.78;98648.13;5053014;28;20082;-50
2022/04/03 04:38:33;;;;;;;9.65;3.45;;;;;;;11.20;61.99;98652.28;5052896;28;20024;-47
2022/04/03 04:40:58;;;;;;;7.82;3.70;;;;;;;11.48;61.38;98659.50;5052655;28;20040;-49
2022/04/03 04:43:24;;;;;;;6.82;3.60;;;;;;;11.52;61.34;98666.00;5052299;28;20458;-50
2022/04/03 04:45:49;;;;;;;6.80;3.50;;;;;;;11.47;61.86;98668.56;5052409;28;20036;-47
2022/04/03 04:48:16;;;;;;;4.50;3.25;;;;;;;11.48;60.73;98675.50;5052236;28;20040;-49
2022/04/03 04:50:41;;;;;;;6.57;3.47;;;;;;;11.67;60.44;98674.31;5052444;28;20039;-48
2022/04/03 04:53:07;;;;;;;9.40;4.20;;;;;;;11.89;63.29;98676.31;5052181;28;20036;-47
2022/04/03 04:55:32;;;;;;;6.90;3.60;;;;;;;11.64;67.67;98684.63;5052283;28;20040;-47
2022/04/03 04:57:58;;;;;;;5.25;3.42;;;;;;;11.93;63.71;98674.81;5052626;28;20025;-47
2022/04/03 05:00:26;;;;;;;7.07;3.28;;;;;;;12.12;59.79;98692.22;5051901;28;20024;-47
2022/04/03 05:02:51;;;;;;;5.50;3.40;;;;;;;11.94;60.74;98700.44;5051920;28;20108;-50
2022/04/03 05:05:18;;;;;;;9.70;4.35;;;;;;;12.04;59.80;98700.63;5051403;28;20109;-47
2022/04/03 05:07:44;;;;;;;7.90;4.10;;;;;;;12.24;59.49;98702.03;5051685;28;20118;-48
2022/04/03 05:10:15;;;;;;;6.03;3.95;;;;;;;12.09;59.98;98699.94;5052135;28;20523;-48
2022/04/03 05:12:42;;;;;;;9.00;3.78;;;;;;;12.23;58.79;98695.09;5051650;28;20024;-48
2022/04/03 05:15:10;;;;;;;5.78;3.58;;;;;;;12.15;59.00;98698.13;5051506;28;20033;-47
2022/04/03 05:17:36;;;;;;;6.55;4.30;;;;;;;12.03;59.54;98704.34;5051652;28;20033;-48
2022/04/03 05:20:03;;;;;;;5.82;3.80;;;;;;;12.19;59.45;98708.09;5051612;28;20094;-48
2022/04/03 05:22:29;;;;;;;6.97;3.95;;;;;;;12.23;59.60;98714.56;5051435;28;20037;-48
2022/04/03 05:24:54;;;;;;;6.53;4.32;;;;;;;12.36;60.29;98731.34;5051418;28;20483;-48
2022/04/03 05:27:20;;;;;;;7.22;4.22;;;;;;;12.60;59.94;98732.81;5051211;28;20034;-50
2022/04/03 05:29:46;;;;;;;7.22;4.53;;;;;;;12.82;59.09;98732.13;5051196;28;20029;-49
2022/04/03 05:32:11;;;;;;;8.77;5.15;;;;;;;12.84;58.73;98732.69;5051295;28;20476;-51
2022/04/03 05:34:37;;;;;;;6.68;4.60;;;;;;;12.96;58.46;98743.28;5048805;28;20484;-50
2022/04/03 05:37:03;;;;;;;9.60;4.95;;;;;;;12.97;57.80;98750.25;5041867;28;20022;-48
2022/04/03 05:39:28;;;;;;;8.30;4.70;;;;;;;13.04;58.33;98743.69;5031803;28;20083;-48
2022/04/03 05:41:55;;;;;;;10.80;5.70;;;;;;;12.95;56.88;98749.69;5031795;28;20045;-50
2022/04/03 05:44:21;;;;;;;7.85;4.00;;;;;;;12.22;57.02;98755.66;5031399;28;20021;-48
2022/04/03 05:46:48;;;;;;;12.75;7.18;;;;;;;12.08;57.68;98759.63;5031143;28;20030;-49
2022/04/03 05:49:14;;;;;;;32.28;17.83;;;;;;;11.95;57.53;98759.91;5031570;28;20492;-48
2022/04/03 05:51:41;;;;;;;9.77;5.22;;;;;;;12.70;55.47;98758.88;5031477;28;20025;-48
2022/04/03 05:54:06;;;;;;;11.18;6.55;;;;;;;12.72;55.72;98770.13;5031430;28;20026;-51
2022/04/03 05:56:32;;;;;;;6.60;3.42;;;;;;;13.50;53.64;98781.00;5031336;28;20091;-49
2022/04/03 05:58:58;;;;;;;14.68;9.50;;;;;;;13.86;66.97;98779.59;5031457;28;20091;-48
2022/04/03 06:01:24;;;;;;;5.25;2.85;;;;;;;14.02;50.36;98774.44;5031327;28;20039;-49
2022/04/03 06:03:50;;;;;;;3.90;2.63;;;;;;;14.54;50.65;98770.44;5031618;28;20017;-48
2022/04/03 06:06:16;;;;;;;4.65;2.35;;;;;;;14.60;51.36;98782.84;5031322;28;20128;-50
2022/04/03 06:08:42;;;;;;;8.35;4.88;;;;;;;15.77;58.86;98785.63;5029667;28;20025;-49
2022/04/03 06:11:07;;;;;;;5.22;2.50;;;;;;;16.37;44.92;98783.44;5031699;28;20493;-49
2022/04/03 06:13:33;;;;;;;3.28;2.13;;;;;;;16.58;43.29;98786.97;5045848;28;20527;-51
2022/04/03 06:15:58;;;;;;;4.68;2.50;;;;;;;16.79;44.19;98795.03;5051684;28;20110;-49
2022/04/03 06:18:24;;;;;;;3.35;2.33;;;;;;;17.27;42.08;98784.88;5051061;28;20400;-48
2022/04/03 06:20:50;;;;;;;2.90;2.20;;;;;;;17.85;40.01;98797.16;5050808;28;20013;-51
2022/04/03 06:23:20;;;;;;;4.97;1.80;;;;;;;17.91;38.94;98786.06;5050975;28;20032;-52
2022/04/03 06:25:48;;;;;;;3.75;1.90;;;;;;;18.63;38.71;98799.19;5051467;28;20021;-49
2022/04/03 06:28:14;;;;;;;3.60;1.88;;;;;;;18.89;37.45;98799.06;5051137;28;20104;-50
2022/04/03 06:30:39;;;;;;;4.65;1.88;;;;;;;18.99;37.03;98808.97;5051199;28;20105;-52
2022/04/03 06:33:06;;;;;;;5.00;1.75;;;;;;;19.68;35.73;98796.97;5051137;28;20515;-52
2022/04/03 06:35:32;;;;;;;4.85;1.80;;;;;;;19.68;36.05;98802.38;5051207;28;20053;-51
2022/04/03 06:37:57;;;;;;;2.63;1.60;;;;;;;20.13;35.33;98795.97;5050673;28;20455;-52
2022/04/03 06:40:23;;;;;;;4.32;1.90;;;;;;;20.42;35.01;98801.25;5050039;28;20440;-51
2022/04/03 06:42:50;;;;;;;9.95;6.70;;;;;;;20.59;35.13;98795.34;5050336;28;20465;-51
2022/04/03 06:45:16;;;;;;;7.32;3.40;;;;;;;19.81;35.67;98803.63;5050175;28;20028;-48
2022/04/03 06:47:41;;;;;;;34.17;24.17;;;;;;;20.90;34.90;98798.41;5050181;28;20032;-48
2022/04/03 06:50:08;;;;;;;7.30;4.43;;;;;;;21.29;34.69;98799.97;5050146;28;20139;-47
2022/04/03 06:52:34;;;;;;;3.65;2.30;;;;;;;21.56;33.43;98806.56;5050115;28;20488;-47
2022/04/03 06:55:00;;;;;;;3.42;2.10;;;;;;;21.71;36.92;98813.59;5049854;28;20053;-49
2022/04/03 06:57:25;;;;;;;3.88;1.70;;;;;;;21.94;33.14;98811.78;5050314;28;20064;-49
2022/04/03 06:59:51;;;;;;;4.97;4.03;;;;;;;22.47;38.36;98813.19;5050177;28;20028;-53
2022/04/03 07:02:16;;;;;;;16.75;10.73;;;;;;;21.81;33.45;98814.19;5049710;28;20025;-52
2022/04/03 07:04:42;;;;;;;3.25;1.40;;;;;;;21.26;33.27;98822.97;5049827;28;20087;-52
2022/04/03 07:07:08;;;;;;;3.15;1.40;;;;;;;21.60;32.70;98827.31;5049966;28;20053;-50
2022/04/03 07:09:38;;;;;;;3.83;1.55;;;;;;;21.33;32.66;98825.31;5049713;28;20360;-48
2022/04/03 07:12:04;;;;;;;2.88;1.60;;;;;;;21.02;33.23;98819.63;5049579;28;20029;-49
2022/04/03 07:14:29;;;;;;;2.45;1.35;;;;;;;20.93;33.26;98832.19;5049617;28;20104;-51
2022/04/03 07:16:54;;;;;;;2.80;1.80;;;;;;;21.24;32.97;98843.31;5050153;28;20029;-51
2022/04/03 07:19:20;;;;;;;3.67;1.90;;;;;;;21.17;34.33;98845.59;5049881;28;20021;-54
2022/04/03 07:21:46;;;;;;;3.72;1.50;;;;;;;20.68;33.64;98847.69;5050019;28;20032;-51
2022/04/03 07:24:11;;;;;;;5.97;1.30;;;;;;;20.93;33.10;98851.94;5051153;28;20516;-51
2022/04/03 07:26:36;;;;;;;2.60;1.85;;;;;;;21.92;32.25;98860.84;5054354;28;20106;-47
2022/04/03 07:29:02;;;;;;;2.75;1.60;;;;;;;21.99;31.80;98852.31;5054256;28;20470;-49
2022/04/03 07:31:28;;;;;;;4.50;1.42;;;;;;;22.36;30.79;98856.75;5054366;28;20043;-49
2022/04/03 07:33:55;;;;;;;2.80;1.50;;;;;;;23.09;30.25;98850.56;5053445;28;20120;-50
2022/04/03 07:36:21;;;;;;;2.83;1.50;;;;;;;22.48;30.39;98850.00;5053729;28;20475;-48
2022/04/03 07:38:47;;;;;;;3.15;1.90;;;;;;;23.17;30.66;98855.25;5053662;28;20465;-52
2022/04/03 07:41:12;;;;;;;5.20;1.60;;;;;;;21.99;30.57;98855.00;5053448;28;20041;-49
2022/04/03 07:43:38;;;;;;;1.80;1.40;;;;;;;21.58;30.84;98850.38;5053289;28;20205;-48
2022/04/03 07:46:03;;;;;;;2.78;1.20;;;;;;;21.98;30.29;98858.84;5053769;28;20025;-48
2022/04/03 07:48:28;;;;;;;1.95;1.27;;;;;;;22.31;29.36;98861.47;5053774;28;20037;-49
2022/04/03 07:50:54;;;;;;;2.50;1.15;;;;;;;22.33;28.68;98862.78;5053748;28;20116;-49
2022/04/03 07:53:20;;;;;;;3.25;1.20;;;;;;;22.03;29.01;98869.59;5053601;28;20029;-48
2022/04/03 07:55:45;;;;;;;2.58;1.15;;;;;;;21.59;29.70;98865.50;5053349;28;20036;-50
2022/04/03 07:58:11;;;;;;;3.55;1.45;;;;;;;21.65;29.71;98861.63;5053480;28;20457;-51
2022/04/03 08:00:37;;;;;;;3.05;1.38;;;;;;;20.82;30.28;98859.38;5053567;28;20119;-49
2022/04/03 08:03:02;;;;;;;3.45;2.50;;;;;;;21.15;29.56;98862.16;5053927;28;20090;-51
2022/04/03 08:05:28;;;;;;;1.65;0.90;;;;;;;21.68;28.87;98861.00;5053156;28;20029;-49
2022/04/03 08:07:55;;;;;;;2.35;0.95;;;;;;;20.99;29.33;98861.56;5053393;28;20159;-52
2022/04/03 08:10:22;;;;;;;9.95;7.63;;;;;;;20.08;30.14;98854.34;5053144;28;20386;-50
2022/04/03 08:12:49;;;;;;;7.68;3.92;;;;;;;20.78;30.42;98854.84;5053375;28;20025;-52
2022/04/03 08:15:16;;;;;;;3.58;1.33;;;;;;;21.20;29.70;98858.53;5052895;28;20473;-50
2022/04/03 08:17:42;;;;;;;1.13;0.90;;;;;;;20.77;29.32;98864.03;5053605;28;20021;-50
2022/04/03 08:20:16;;;;;;;1.52;0.90;;;;;;;20.41;29.60;98867.19;5053759;28;20370;-50
2022/04/03 08:22:42;;;;;;;2.22;0.90;;;;;;;20.05;29.33;98873.03;5053315;28;20033;-37
2022/04/03 08:25:09;;;;;;;5.78;1.40;;;;;;;19.27;29.61;98872.91;5053394;28;20036;-38
2022/04/03 08:27:45;;;;;;;2.28;1.00;;;;;;;18.78;30.67;98873.75;5052693;28;20025;-37
2022/04/03 08:30:21;;;;;;;2.65;0.90;;;;;;;18.72;29.99;98881.06;5053112;28;20029;-37
2022/04/03 08:32:47;;;;;;;1.15;0.50;;;;;;;18.50;29.27;98880.63;5053067;28;20037;-37
2022/04/03 08:35:14;;;;;;;1.40;0.77;;;;;;;18.28;29.78;98873.72;5052711;28;20384;-38
2022/04/03 08:37:40;;;;;;;5.72;4.03;;;;;;;20.23;52.80;98901.19;5052538;28;20103;-38
2022/04/03 08:40:07;;;;;;;3.60;2.55;;;;;;;21.29;42.75;98894.66;5053009;28;20036;-37
2022/04/03 08:42:34;;;;;;;1.95;1.00;;;;;;;22.05;28.62;98878.22;5052771;28;20071;-37
2022/04/03 08:45:00;;;;;;;0.70;0.60;;;;;;;21.54;28.41;98882.63;5053067;28;20035;-38
2022/04/03 08:47:26;;;;;;;3.33;0.50;;;;;;;20.21;29.67;98892.56;5052421;28;20108;-38
2022/04/03 08:49:57;;;;;;;2.75;0.80;;;;;;;19.92;29.16;98891.50;5052707;28;20036;-38
2022/04/03 08:52:23;;;;;;;2.63;0.80;;;;;;;19.79;29.38;98896.78;5052621;28;20681;-38
2022/04/03 08:54:49;;;;;;;1.10;0.80;;;;;;;19.89;30.22;98885.88;5052630;28;20060;-38
2022/04/03 08:57:15;;;;;;;3.47;0.90;;;;;;;20.09;30.48;98895.66;5052677;28;20025;-38
2022/04/03 08:59:40;;;;;;;3.45;1.25;;;;;;;19.68;29.67;98890.63;5051009;28;20040;-37
2022/04/03 09:02:07;;;;;;;2.88;1.40;;;;;;;19.52;29.67;98892.69;5052685;28;20029;-37
2022/04/03 09:04:32;;;;;;;2.78;1.20;;;;;;;19.81;29.34;98891.91;5052145;28;20032;-37
2022/04/03 09:06:59;;;;;;;2.67;1.33;;;;;;;19.70;30.09;98883.06;5052424;28;20404;-38
2022/04/03 09:09:26;;;;;;;2.38;0.88;;;;;;;20.25;28.30;98883.59;5052161;28;20032;-38
2022/04/03 09:12:07;;;;;;;3.45;1.20;;;;;;;20.78;27.43;98881.88;5052307;28;20033;-38
2022/04/03 09:14:34;;;;;;;1.27;0.90;;;;;;;21.32;27.26;98887.84;5052334;28;20036;-38
2022/04/03 09:16:59;;;;;;;1.00;0.60;;;;;;;20.45;26.60;98901.47;5051960;28;20028;-36
2022/04/03 09:19:33;;;;;;;0.85;0.50;;;;;;;20.48;27.37;98908.19;5051583;28;20104;-38
2022/04/03 09:21:59;;;;;;;1.58;0.60;;;;;;;20.73;26.36;98890.06;5051975;28;20090;-38
2022/04/03 09:24:25;;;;;;;1.40;0.82;;;;;;;20.28;25.79;98888.41;5052059;28;20017;-38
2022/04/03 09:26:58;;;;;;;8.25;3.13;;;;;;;21.14;25.29;98889.50;5051908;28;20401;-38
2022/04/03 09:29:24;;;;;;;13.00;4.35;;;;;;;20.35;25.61;98898.06;5051578;28;20047;-39
2022/04/03 09:32:00;;;;;;;1.83;0.93;;;;;;;20.29;25.94;98903.53;5051337;28;20473;-37
2022/04/03 09:34:27;;;;;;;11.02;3.22;;;;;;;20.14;27.23;98898.28;5051349;28;20028;-37
2022/04/03 09:36:56;;;;;;;3.10;1.52;;;;;;;20.75;26.09;98896.78;5051580;28;20052;-50
2022/04/03 09:39:26;;;;;;;4.28;1.25;;;;;;;20.20;25.57;98899.88;5052076;28;20412;-49
2022/04/03 09:41:59;;;;;;;1.15;0.73;;;;;;;19.31;27.12;98913.63;5051866;28;20057;-49
2022/04/03 09:44:35;;;;;;;1.67;0.73;;;;;;;19.21;27.26;98909.09;5051620;28;20032;-48
2022/04/03 09:47:14;;;;;;;1.05;0.65;;;;;;;19.10;27.72;98902.97;5051154;28;20024;-49
2022/04/03 09:49:41;;;;;;;1.50;0.88;;;;;;;19.10;27.43;98894.06;5051603;28;20079;-48
2022/04/03 09:52:07;;;;;;;1.40;0.70;;;;;;;19.30;28.08;98896.59;5044299;28;20521;-49
2022/04/03 09:54:33;;;;;;;3.65;0.90;;;;;;;20.62;26.38;98903.72;5031491;28;20060;-49
2022/04/03 09:57:19;;;;;;;2.83;1.02;;;;;;;20.63;26.56;98901.81;5037660;28;20025;-48
2022/04/03 09:59:53;;;;;;;1.05;0.75;;;;;;;20.57;26.72;98909.16;5033274;28;20026;-47
2022/04/03 10:02:19;;;;;;;0.77;0.60;;;;;;;20.17;26.66;98907.75;5031052;28;20027;-50
2022/04/03 10:04:46;;;;;;;1.95;0.88;;;;;;;20.78;26.49;98906.22;5030795;28;20089;-49
2022/04/03 10:07:13;;;;;;;2.20;0.68;;;;;;;20.28;26.85;98910.03;5030214;28;20053;-50
2022/04/03 10:09:50;;;;;;;1.35;0.77;;;;;;;20.06;27.24;98897.03;5030439;28;20036;-50
2022/04/03 10:12:19;;;;;;;3.50;1.00;;;;;;;20.38;27.75;98909.09;5033375;28;20024;-48
2022/04/03 10:14:46;;;;;;;8.93;6.65;;;;;;;21.69;25.68;98894.31;5049462;28;20024;-49
2022/04/03 10:17:13;;;;;;;1.92;1.02;;;;;;;21.24;25.52;98903.63;5049161;28;20021;-49
2022/04/03 10:19:39;;;;;;;1.27;0.70;;;;;;;21.16;25.89;98900.81;5049144;28;20027;-51
2022/04/03 10:22:11;;;;;;;1.20;0.70;;;;;;;21.20;25.94;98896.41;5049389;28;20107;-50
2022/04/03 10:24:39;;;;;;;1.05;0.73;;;;;;;21.09;26.31;98904.69;5048978;28;20172;-49
2022/04/03 10:27:27;;;;;;;2.70;0.90;;;;;;;20.75;26.52;98917.59;5049317;28;20067;-52
2022/04/03 10:29:57;;;;;;;1.17;0.88;;;;;;;19.45;27.52;98914.56;5049865;28;20029;-52
2022/04/03 10:32:30;;;;;;;2.08;0.90;;;;;;;19.48;28.07;98919.41;5050686;28;20124;-51
2022/04/03 10:35:06;;;;;;;1.25;1.02;;;;;;;19.36;27.42;98915.47;5050261;28;20029;-52
2022/04/03 10:38:02;;;;;;;1.10;0.80;;;;;;;19.45;27.75;98927.25;5050924;28;20476;-49
2022/04/03 10:40:33;;;;;;;1.58;0.80;;;;;;;18.96;26.94;98910.06;5050512;28;20040;-51
2022/04/03 10:43:02;;;;;;;2.67;1.20;;;;;;;18.73;28.01;98917.72;5050482;28;20483;-48
2022/04/03 10:45:35;;;;;;;1.63;0.90;;;;;;;18.55;27.35;98913.75;5050082;28;20028;-48
2022/04/03 10:48:19;;;;;;;2.35;1.20;;;;;;;19.70;27.13;98927.06;5050737;28;20108;-51
2022/04/03 10:50:57;;;;;;;1.13;0.80;;;;;;;18.90;27.68;98913.88;5050586;28;20035;-49
2022/04/03 10:53:24;;;;;;;1.60;0.80;;;;;;;18.93;27.80;98921.41;5050189;28;20025;-49
2022/04/03 10:55:55;;;;;;;2.28;1.15;;;;;;;19.51;27.43;98921.56;5050064;28;20029;-52
2022/04/03 10:58:21;;;;;;;1.45;0.82;;;;;;;18.93;27.48;98924.09;5050338;28;20141;-49
2022/04/03 11:00:48;;;;;;;1.08;0.90;;;;;;;19.30;27.28;98912.78;5054105;28;20028;-49
2022/04/03 11:03:13;;;;;;;1.27;0.85;;;;;;;19.65;27.33;98927.09;5053949;28;20028;-51
2022/04/03 11:05:39;;;;;;;1.08;0.70;;;;;;;20.18;26.96;98915.56;5054227;28;20029;-48
2022/04/03 11:08:04;;;;;;;3.88;1.20;;;;;;;20.39;26.84;98921.53;5053647;28;20064;-48
2022/04/03 11:10:54;;;;;;;0.80;0.75;;;;;;;19.97;26.43;98924.94;5054271;28;20036;-48
2022/04/03 11:13:28;;;;;;;1.83;0.70;;;;;;;19.96;26.06;98924.16;5053611;28;20404;-48
2022/04/03 11:15:56;;;;;;;1.80;0.85;;;;;;;20.16;26.75;98919.63;5053954;28;20025;-49
2022/04/03 11:18:45;;;;;;;2.72;1.10;;;;;;;19.55;26.85;98929.88;5053597;28;20013;-52
2022/04/03 11:21:18;;;;;;;6.32;3.55;;;;;;;19.25;27.78;98920.94;5054053;28;20021;-51
2022/04/03 11:23:51;;;;;;;0.82;0.63;;;;;;;19.67;26.44;98930.31;5053863;28;20020;-50
2022/04/03 11:26:17;;;;;;;1.05;0.70;;;;;;;19.39;26.48;98921.09;5054081;28;20036;-52
2022/04/03 11:28:45;;;;;;;1.90;0.75;;;;;;;19.81;26.51;98914.28;5053677;28;20123;-52
2022/04/03 11:31:11;;;;;;;1.10;0.60;;;;;;;20.20;25.72;98912.56;5053829;28;20021;-51
2022/04/03 11:33:38;;;;;;;1.10;0.90;;;;;;;20.18;24.47;98912.03;5053765;28;20086;-50